Saltar para o conteúdo principal

Coimbra, Bencanta

ID 1210707 · 40.2135, -8.4552 mapa

Última leitura · 2026-05-09 19:00 (Europe/Lisbon)

Temperatura
13.2 °C
Humidade
100 %
Pressão
Precipitação
2.3 mm
Radiação
208 W/m²
Velocidade do vento
4.7 km/h
Direcção do vento
SE · Sudeste

Histórico de 24 horas

Hora (Europe/Lisbon) Temperatura Humidade Pressão Chuva Vento Direcção
2026-05-09 19:00 13.2 °C 100 % 2.3 mm 4.7 km/h SE
2026-05-09 18:00 15.1 °C 93 % 10.2 mm 6.8 km/h SE
2026-05-09 17:00 16.7 °C 90 % 1.7 mm 5.4 km/h SW
2026-05-09 16:00 15.9 °C 86 % 2.4 mm 11.5 km/h SW
2026-05-09 15:00 19.1 °C 68 % 0.3 mm 14.0 km/h W
2026-05-09 14:00 19.2 °C 67 % 0.0 mm 10.1 km/h SW
2026-05-09 13:00 18.1 °C 69 % 0.0 mm 9.4 km/h S
2026-05-09 12:00 17.9 °C 71 % 0.0 mm 12.6 km/h SE
2026-05-09 11:00 15.4 °C 90 % 0.1 mm 6.8 km/h E
2026-05-09 10:00 14.5 °C 90 % 0.1 mm 5.8 km/h SE
2026-05-09 09:00 14.6 °C 92 % 0.0 mm 8.6 km/h SE
2026-05-09 08:00 13.7 °C 100 % 0.1 mm 3.6 km/h E
2026-05-09 07:00 14.2 °C 91 % 1.5 mm 4.0 km/h SE
2026-05-09 06:00 14.6 °C 82 % 0.0 mm 8.6 km/h SE
2026-05-09 05:00 15.0 °C 79 % 0.0 mm 13.7 km/h SE
2026-05-09 04:00 15.1 °C 75 % 0.0 mm 14.8 km/h SE
2026-05-09 03:00 14.6 °C 81 % 0.0 mm 6.1 km/h SE
2026-05-09 02:00 14.9 °C 83 % 0.0 mm 6.8 km/h S
2026-05-09 01:00 14.5 °C 93 % 0.0 mm 5.0 km/h S
2026-05-09 00:00 14.2 °C 100 % 2.2 mm 11.5 km/h E
2026-05-08 23:00 15.5 °C 88 % 0.6 mm 6.1 km/h S
2026-05-08 22:00 17.0 °C 73 % 0.0 mm 5.8 km/h S
2026-05-08 21:00 18.2 °C 64 % 0.0 mm 4.3 km/h W
2026-05-08 20:00 19.5 °C 52 % 0.0 mm 0.4 km/h SE